Time;durP1;ratioP1;P1;durP2;ratioP2;P2;SDS_P1;SDS_P2;PMS_P1;PMS_P2;Temp;Humidity;BMP_temperature;BMP_pressure;BME280_temperature;BME280_humidity;BME280_pressure;Samples;Min_cycle;Max_cycle;Signal;HPM_P1;HPM_P2
2022/10/24 06:08:42;;;;;;;;;;;;;;;17.51;82.92;96735.16;4234951;27;10243;-70
2022/10/24 06:10:46;;;;;;;;;;;;;;;17.83;82.44;96740.88;4219059;28;5816;-70
2022/10/24 06:12:49;;;;;;;;;;;;;;;18.06;81.62;96754.13;4223621;28;5667;-70
2022/10/24 06:14:55;;;;;;;;;;;;;;;18.25;80.94;96757.41;4229407;28;5689;-70
2022/10/24 06:16:58;;;;;;;;;;;;;;;18.40;80.71;96744.25;4217135;28;5095;-70
2022/10/24 06:19:01;;;;;;;;;;;;;;;18.51;80.12;96759.44;4219500;28;5693;-70
2022/10/24 06:21:06;;;;;;;;;;;;;;;18.61;79.76;96782.88;4223324;28;5743;-70
2022/10/24 06:23:09;;;;;;;;;;;;;;;18.67;79.63;96776.56;4231881;28;5672;-70
2022/10/24 06:25:14;;;;;;;;;;;;;;;18.70;79.15;96776.09;4231778;28;5700;-70
2022/10/24 06:27:19;;;;;;;;;;;;;;;18.75;79.16;96778.03;4216913;28;5677;-71
2022/10/24 06:29:22;;;;;;;;;;;;;;;18.79;78.99;96784.50;4215256;27;5910;-70
2022/10/24 06:31:25;;;;;;;;;;;;;;;18.83;79.07;96791.81;4216421;28;5957;-70
2022/10/24 06:33:28;;;;;;;;;;;;;;;18.88;78.56;96783.03;4215002;28;5701;-70
2022/10/24 06:35:32;;;;;;;;;;;;;;;18.87;78.42;96776.88;4215094;28;5697;-70
2022/10/24 06:37:35;;;;;;;;;;;;;;;18.86;78.11;96774.44;4221829;28;5775;-70
2022/10/24 06:39:38;;;;;;;;;;;;;;;18.89;78.29;96777.41;4231622;28;5672;-70
2022/10/24 06:41:42;;;;;;;;;;;;;;;18.94;78.20;96786.59;4230909;28;5796;-70
2022/10/24 06:43:45;;;;;;;;;;;;;;;18.94;77.61;96782.06;4231562;28;5734;-71
2022/10/24 06:45:48;;;;;;;;;;;;;;;18.92;77.66;96778.81;4222681;28;5713;-71
2022/10/24 06:47:52;;;;;;;;;;;;;;;18.85;77.71;96773.63;4231350;28;5672;-71
2022/10/24 06:49:56;;;;;;;;;;;;;;;18.81;77.88;96780.53;4231271;28;5671;-71
2022/10/24 06:51:59;;;;;;;;;;;;;;;18.85;78.13;96800.41;4229008;28;5681;-68
2022/10/24 06:54:02;;;;;;;;;;;;;;;18.86;78.16;96795.88;4230868;28;5664;-68
2022/10/24 06:56:06;;;;;;;;;;;;;;;18.80;77.66;96788.78;4231357;28;5818;-68
2022/10/24 06:58:10;;;;;;;;;;;;;;;18.77;78.05;96782.06;4230871;28;5728;-68
2022/10/24 07:00:14;;;;;;;;;;;;;;;18.76;77.87;96780.44;4230011;28;5684;-68
2022/10/24 07:02:17;;;;;;;;;;;;;;;18.78;77.89;96770.28;4230173;28;5673;-68
2022/10/24 07:04:20;;;;;;;;;;;;;;;18.83;77.80;96774.94;4230072;28;5676;-68
2022/10/24 07:06:25;;;;;;;;;;;;;;;18.89;77.72;96776.59;4231350;28;5784;-68
2022/10/24 07:08:28;;;;;;;;;;;;;;;18.92;77.10;96772.66;4225342;28;5672;-69
2022/10/24 07:10:32;;;;;;;;;;;;;;;18.94;77.06;96782.06;4210451;28;5893;-68
2022/10/24 07:12:35;;;;;;;;;;;;;;;18.98;76.71;96785.84;4217806;28;7703;-68
2022/10/24 07:14:39;;;;;;;;;;;;;;;18.99;77.07;96790.16;4214133;28;5657;-68
2022/10/24 07:16:42;;;;;;;;;;;;;;;19.02;76.54;96802.25;4218755;28;5758;-68
2022/10/24 07:18:45;;;;;;;;;;;;;;;19.02;76.48;96815.63;4219308;28;5777;-68
2022/10/24 07:20:48;;;;;;;;;;;;;;;18.99;76.38;96822.31;4218776;28;5101;-71
2022/10/24 07:22:51;;;;;;;;;;;;;;;19.02;76.71;96815.63;4216521;28;5754;-71
2022/10/24 07:24:55;;;;;;;;;;;;;;;19.00;76.34;96818.56;4209070;28;5675;-71
2022/10/24 07:26:58;;;;;;;;;;;;;;;18.98;76.07;96820.69;4209320;28;5763;-71
2022/10/24 07:29:01;;;;;;;;;;;;;;;18.98;75.99;96826.03;4215681;28;5674;-71
2022/10/24 07:31:12;;;;;;;;;;;;;;;19.03;75.71;96822.66;4213815;28;5799;-71
2022/10/24 07:33:15;;;;;;;;;;;;;;;19.06;75.57;96819.47;4219095;28;5677;-71
2022/10/24 07:35:18;;;;;;;;;;;;;;;19.09;75.40;96816.28;4218256;28;5680;-71
2022/10/24 07:37:21;;;;;;;;;;;;;;;19.11;75.50;96798.91;4211685;28;5689;-71
2022/10/24 07:39:24;;;;;;;;;;;;;;;19.14;75.42;96778.81;4207565;28;5704;-71
2022/10/24 07:41:31;;;;;;;;;;;;;;;19.16;74.83;96774.06;4219281;28;5656;-71
2022/10/24 07:43:34;;;;;;;;;;;;;;;19.18;75.04;96769.25;4219291;28;5668;-71
2022/10/24 07:45:38;;;;;;;;;;;;;;;19.20;74.58;96759.91;4217649;28;5712;-71
2022/10/24 07:47:43;;;;;;;;;;;;;;;19.22;74.72;96765.00;4207471;28;5836;-71
2022/10/24 07:49:46;;;;;;;;;;;;;;;19.25;74.38;96769.06;4218269;28;5866;-71
2022/10/24 07:51:49;;;;;;;;;;;;;;;19.27;74.64;96775.00;4219438;28;5672;-71
2022/10/24 07:53:52;;;;;;;;;;;;;;;19.27;74.30;96775.00;4218946;28;6956;-71
2022/10/24 07:55:58;;;;;;;;;;;;;;;19.29;74.51;96778.25;4215432;28;5822;-71
2022/10/24 07:58:01;;;;;;;;;;;;;;;19.29;74.08;96778.25;4210315;28;5759;-71
2022/10/24 08:00:05;;;;;;;;;;;;;;;19.29;74.04;96783.59;4218293;28;5672;-71
2022/10/24 08:02:10;;;;;;;;;;;;;;;19.33;73.88;96795.44;4217667;28;5755;-70
2022/10/24 08:04:14;;;;;;;;;;;;;;;19.33;73.75;96780.16;4218122;28;5660;-71
2022/10/24 08:06:19;;;;;;;;;;;;;;;19.37;73.88;96796.56;4217538;28;7162;-72
2022/10/24 08:08:23;;;;;;;;;;;;;;;19.37;73.78;96801.94;4218688;28;5661;-73
2022/10/24 08:10:38;;;;;;;;;;;;;;;19.39;73.69;96821.25;4206673;28;5813;-72
2022/10/24 08:12:41;;;;;;;;;;;;;;;19.39;73.67;96821.25;4217851;28;5697;-72
2022/10/24 08:14:44;;;;;;;;;;;;;;;19.39;73.81;96842.72;4218184;28;5667;-72
2022/10/24 08:16:47;;;;;;;;;;;;;;;19.38;73.34;96857.97;4218049;28;5687;-72
2022/10/24 08:18:52;;;;;;;;;;;;;;;19.39;73.59;96858.78;4217653;28;5771;-73
2022/10/24 08:21:01;;;;;;;;;;;;;;;19.38;73.58;96867.91;4216802;28;5868;-72
2022/10/24 08:23:04;;;;;;;;;;;;;;;19.38;73.15;96883.97;4218211;28;5664;-71
2022/10/24 08:25:09;;;;;;;;;;;;;;;19.39;73.34;96897.13;4217406;28;5747;-70
2022/10/24 08:27:13;;;;;;;;;;;;;;;19.41;73.27;96911.09;4216600;28;5137;-70
2022/10/24 08:29:21;;;;;;;;;;;;;;;19.41;73.20;96889.66;4212639;28;5887;-71
2022/10/24 08:31:25;;;;;;;;;;;;;;;19.40;73.49;96876.50;4211624;28;5684;-71
2022/10/24 08:33:29;;;;;;;;;;;;;;;19.38;73.15;96876.75;4209932;28;5689;-71
2022/10/24 08:35:32;;;;;;;;;;;;;;;19.37;73.58;96866.28;4212801;28;5767;-71
2022/10/24 08:37:37;;;;;;;;;;;;;;;19.34;73.32;96862.19;4205983;28;5927;-71
2022/10/24 08:39:40;;;;;;;;;;;;;;;19.29;73.26;96874.72;4202012;28;5796;-71
2022/10/24 08:41:46;;;;;;;;;;;;;;;19.30;73.69;96861.06;4212801;28;5711;-71
2022/10/24 08:43:49;;;;;;;;;;;;;;;19.27;73.31;96848.19;4214803;28;5680;-71
2022/10/24 08:46:04;;;;;;;;;;;;;;;19.22;73.51;96850.78;4212123;28;5672;-71
2022/10/24 08:48:09;;;;;;;;;;;;;;;19.27;73.60;96847.38;4217655;28;5811;-71
2022/10/24 08:50:23;;;;;;;;;;;;;;;19.32;73.53;96850.09;4212440;28;5864;-71
2022/10/24 08:52:31;;;;;;;;;;;;;;;19.37;73.43;96858.22;4214435;28;5857;-70
2022/10/24 08:54:39;;;;;;;;;;;;;;;19.41;73.21;96872.75;4210070;28;5801;-69
2022/10/24 08:56:42;;;;;;;;;;;;;;;19.42;72.98;96869.00;4211594;28;5762;-69
2022/10/24 08:58:47;;;;;;;;;;;;;;;19.44;73.12;96878.41;4216283;28;5742;-67
2022/10/24 09:00:52;;;;;;;;;;;;;;;19.48;72.93;96884.13;4210661;28;5688;-67
2022/10/24 09:03:02;;;;;;;;;;;;;;;19.48;72.95;96886.81;4217686;28;5841;-67
2022/10/24 09:05:21;;;;;;;;;;;;;;;19.47;73.07;96887.84;4212634;28;5900;-68
2022/10/24 09:07:25;;;;;;;;;;;;;;;19.43;73.19;96898.25;4206711;28;5731;-68
2022/10/24 09:09:36;;;;;;;;;;;;;;;19.41;73.13;96896.88;4213407;28;5837;-67
2022/10/24 09:11:47;;;;;;;;;;;;;;;19.39;73.12;96901.69;4200712;28;5794;-68
2022/10/24 09:13:50;;;;;;;;;;;;;;;19.42;73.35;96898.50;4207823;28;5794;-69
2022/10/24 09:15:54;;;;;;;;;;;;;;;19.45;72.98;96901.50;4213176;28;6523;-69
2022/10/24 09:17:58;;;;;;;;;;;;;;;19.48;73.20;96910.94;4211361;28;5109;-69
2022/10/24 09:20:07;;;;;;;;;;;;;;;19.44;72.67;96907.91;4201930;28;5780;-69
2022/10/24 09:22:11;;;;;;;;;;;;;;;19.46;73.09;96923.75;4205211;28;5668;-69
2022/10/24 09:24:28;;;;;;;;;;;;;;;19.44;72.61;96931.22;4217233;28;6848;-69
2022/10/24 09:26:33;;;;;;;;;;;;;;;19.35;72.72;96932.69;4217038;28;5668;-69
2022/10/24 09:28:38;;;;;;;;;;;;;;;19.30;72.71;96929.94;4217170;28;5771;-69
2022/10/24 09:30:41;;;;;;;;;;;;;;;19.29;72.73;96931.00;4216649;28;5679;-70
2022/10/24 09:32:44;;;;;;;;;;;;;;;19.22;72.17;96916.97;4215843;28;5676;-70
2022/10/24 09:34:47;;;;;;;;;;;;;;;19.15;72.19;96922.50;4216744;28;5858;-70
2022/10/24 09:36:51;;;;;;;;;;;;;;;19.10;72.20;96915.19;4217280;28;5108;-70
2022/10/24 09:38:54;;;;;;;;;;;;;;;19.13;72.28;96912.00;4214873;28;5668;-70
2022/10/24 09:40:59;;;;;;;;;;;;;;;19.18;71.97;96922.00;4212293;28;5101;-70
2022/10/24 09:43:11;;;;;;;;;;;;;;;19.17;71.91;96906.97;4217266;28;5660;-70
2022/10/24 09:45:32;;;;;;;;;;;;;;;19.07;71.09;96898.78;4217446;28;5663;-70
2022/10/24 09:47:38;;;;;;;;;;;;;;;18.96;71.32;96903.16;4215265;28;5767;-70
2022/10/24 09:49:41;;;;;;;;;;;;;;;18.91;71.20;96895.03;4216245;28;5660;-70
2022/10/24 09:51:47;;;;;;;;;;;;;;;18.82;71.53;96931.34;4200280;28;5704;-70
2022/10/24 09:54:25;;;;;;;;;;;;;;;18.74;72.26;96961.19;4200418;28;5745;-71
2022/10/24 09:56:36;;;;;;;;;;;;;;;18.76;72.58;96977.81;4200268;28;5685;-70
2022/10/24 09:58:39;;;;;;;;;;;;;;;18.70;72.27;96931.41;4200301;28;5717;-70
2022/10/24 10:00:43;;;;;;;;;;;;;;;18.49;72.27;96898.06;4208556;28;5882;-71
2022/10/24 10:02:57;;;;;;;;;;;;;;;18.20;73.47;96877.72;4200295;28;5697;-70
2022/10/24 10:05:19;;;;;;;;;;;;;;;18.01;74.04;96917.22;4201305;28;5692;-71
2022/10/24 10:07:27;;;;;;;;;;;;;;;18.04;74.53;96916.75;4216229;28;5754;-71
2022/10/24 10:09:33;;;;;;;;;;;;;;;17.92;74.06;96903.41;4216188;28;5796;-70
2022/10/24 10:11:36;;;;;;;;;;;;;;;17.74;74.81;96923.06;4216955;28;5668;-71
2022/10/24 10:13:51;;;;;;;;;;;;;;;17.83;75.18;96938.78;4215361;28;5741;-71
2022/10/24 10:15:58;;;;;;;;;;;;;;;17.96;75.15;96968.72;4217008;28;7754;-71
2022/10/24 10:18:06;;;;;;;;;;;;;;;18.07;75.18;96969.75;4216992;28;6349;-71
2022/10/24 10:20:23;;;;;;;;;;;;;;;18.17;74.97;96953.09;4213734;28;6429;-71
2022/10/24 10:22:28;;;;;;;;;;;;;;;18.17;75.13;96923.69;4217032;28;5758;-71
2022/10/24 10:24:38;;;;;;;;;;;;;;;18.16;75.15;96930.09;4216181;28;5776;-71
2022/10/24 10:26:44;;;;;;;;;;;;;;;18.21;75.30;96930.16;4216367;28;5691;-71
2022/10/24 10:29:02;;;;;;;;;;;;;;;18.22;75.31;96905.84;4215485;28;5735;-71
2022/10/24 10:31:09;;;;;;;;;;;;;;;18.21;75.73;96914.94;4215940;28;5841;-71
2022/10/24 10:33:20;;;;;;;;;;;;;;;18.20;75.64;96926.69;4215910;28;6064;-71
2022/10/24 10:35:27;;;;;;;;;;;;;;;18.21;75.93;96906.09;4207279;28;7711;-71
2022/10/24 10:37:32;;;;;;;;;;;;;;;18.24;75.89;96900.28;4216329;28;5732;-71
2022/10/24 10:40:07;;;;;;;;;;;;;;;18.29;76.28;96927.13;4208412;28;5705;-71
2022/10/24 10:42:16;;;;;;;;;;;;;;;18.30;76.46;96936.78;4189604;28;6031;-71
2022/10/24 10:44:37;;;;;;;;;;;;;;;18.34;76.48;96953.97;4201569;28;8056;-71
2022/10/24 10:46:49;;;;;;;;;;;;;;;18.39;76.48;96983.53;4202913;28;5721;-72
2022/10/24 10:49:03;;;;;;;;;;;;;;;18.40;76.74;96985.16;4203465;28;5697;-70
2022/10/24 10:51:15;;;;;;;;;;;;;;;18.37;76.63;96937.44;4218364;28;5723;-69
2022/10/24 10:53:33;;;;;;;;;;;;;;;18.22;77.19;96931.78;4219933;28;5763;-70
2022/10/24 10:55:42;;;;;;;;;;;;;;;18.15;77.76;96944.50;4211203;28;5678;-70
2022/10/24 10:57:52;;;;;;;;;;;;;;;18.20;77.75;96950.75;4203853;28;5336;-70
2022/10/24 11:00:01;;;;;;;;;;;;;;;18.24;77.77;96932.38;4207840;28;5764;-70
2022/10/24 11:02:21;;;;;;;;;;;;;;;18.14;77.99;96924.97;4217799;28;5672;-70
2022/10/24 11:04:33;;;;;;;;;;;;;;;18.16;78.00;96938.09;4219019;28;5668;-70
2022/10/24 11:06:45;;;;;;;;;;;;;;;18.23;78.09;96933.41;4219518;28;5667;-70
2022/10/24 11:09:11;;;;;;;;;;;;;;;18.30;78.39;96928.75;4219736;28;5680;-70
2022/10/24 11:11:17;;;;;;;;;;;;;;;18.40;78.30;96936.97;4218899;28;5656;-70
2022/10/24 11:13:27;;;;;;;;;;;;;;;18.45;78.46;96938.91;4219310;28;5763;-70
2022/10/24 11:15:40;;;;;;;;;;;;;;;18.42;78.33;96934.84;4219534;28;5692;-71
2022/10/24 11:17:50;;;;;;;;;;;;;;;18.41;78.93;96935.91;4218037;28;5691;-71
2022/10/24 11:20:03;;;;;;;;;;;;;;;18.45;78.88;96933.56;4218973;28;5755;-70
2022/10/24 11:22:14;;;;;;;;;;;;;;;18.47;78.68;96937.66;4218565;28;5669;-70
2022/10/24 11:24:20;;;;;;;;;;;;;;;18.46;79.28;96956.59;4219329;28;5667;-70
2022/10/24 11:26:30;;;;;;;;;;;;;;;18.46;79.28;96961.94;4219194;28;5775;-70
2022/10/24 11:28:40;;;;;;;;;;;;;;;18.44;79.54;96988.97;4219030;28;5696;-70
2022/10/24 11:30:50;;;;;;;;;;;;;;;18.42;79.66;96999.09;4218505;28;5668;-70
2022/10/24 11:33:01;;;;;;;;;;;;;;;18.45;79.83;97003.97;4219290;28;5755;-70
2022/10/24 11:35:17;;;;;;;;;;;;;;;18.44;79.91;97017.59;4218672;28;5679;-70
2022/10/24 11:37:27;;;;;;;;;;;;;;;18.47;79.88;97017.97;4219115;28;5668;-70
2022/10/24 11:39:34;;;;;;;;;;;;;;;18.35;79.90;97009.16;4217780;28;5810;-70
2022/10/24 11:41:58;;;;;;;;;;;;;;;18.24;80.61;97000.09;4218150;28;6373;-70
2022/10/24 11:44:10;;;;;;;;;;;;;;;18.26;80.72;96987.28;4217702;28;5676;-70
2022/10/24 11:46:19;;;;;;;;;;;;;;;18.25;80.88;96983.00;4219028;28;5731;-70
2022/10/24 11:48:30;;;;;;;;;;;;;;;18.27;80.81;96996.13;4218810;28;5699;-70
2022/10/24 11:50:38;;;;;;;;;;;;;;;18.25;80.81;96998.22;4218310;28;5798;-70
2022/10/24 11:52:44;;;;;;;;;;;;;;;18.30;81.32;97003.69;4215830;28;5778;-70
2022/10/24 11:54:53;;;;;;;;;;;;;;;18.38;80.97;97003.31;4218618;28;5672;-70
2022/10/24 11:57:02;;;;;;;;;;;;;;;18.44;81.35;97001.53;4207289;28;6549;-70
2022/10/24 11:59:07;;;;;;;;;;;;;;;18.48;81.14;96997.34;4206435;28;5701;-70
2022/10/24 12:01:19;;;;;;;;;;;;;;;18.53;81.51;96990.22;4201736;28;5785;-70
2022/10/24 12:03:52;;;;;;;;;;;;;;;18.56;81.44;96994.28;4208254;28;5668;-70
2022/10/24 12:06:21;;;;;;;;;;;;;;;18.55;81.36;96993.47;4207627;28;5693;-70
2022/10/24 12:08:47;;;;;;;;;;;;;;;18.56;81.72;96994.28;4199265;28;5694;-70
2022/10/24 12:11:06;;;;;;;;;;;;;;;18.58;81.94;96998.38;4206944;28;5762;-70
2022/10/24 12:13:37;;;;;;;;;;;;;;;18.61;82.00;97002.41;4218587;28;5780;-70
2022/10/24 12:15:47;;;;;;;;;;;;;;;18.63;82.12;97009.16;4209627;28;5689;-70
2022/10/24 12:18:04;;;;;;;;;;;;;;;18.65;82.09;97000.91;4212007;28;5883;-70
2022/10/24 12:20:15;;;;;;;;;;;;;;;18.66;82.27;96991.81;4209874;28;5682;-70
2022/10/24 12:22:22;;;;;;;;;;;;;;;18.56;82.19;96975.53;4207828;28;7710;-70
2022/10/24 12:24:30;;;;;;;;;;;;;;;18.52;82.39;96967.19;4208233;28;5883;-70
2022/10/24 12:26:34;;;;;;;;;;;;;;;18.45;82.65;96947.75;4213264;28;5680;-70
2022/10/24 12:28:38;;;;;;;;;;;;;;;18.40;82.44;96955.69;4209436;28;6928;-70
2022/10/24 12:30:41;;;;;;;;;;;;;;;18.38;82.50;96973.06;4210892;28;5738;-70
2022/10/24 12:32:47;;;;;;;;;;;;;;;18.37;82.68;96990.97;4214227;28;5672;-70
2022/10/24 12:34:59;;;;;;;;;;;;;;;18.31;82.83;96986.56;4211480;28;5828;-70
2022/10/24 12:37:35;;;;;;;;;;;;;;;18.24;82.88;96967.19;4209658;28;6370;-70
2022/10/24 12:39:40;;;;;;;;;;;;;;;18.24;83.14;96975.19;4215775;28;5669;-70
2022/10/24 12:41:49;;;;;;;;;;;;;;;18.26;83.27;96973.91;4212263;28;6010;-70
2022/10/24 12:44:30;;;;;;;;;;;;;;;18.33;82.82;96963.06;4216178;28;5834;-70
2022/10/24 12:46:53;;;;;;;;;;;;;;;18.31;83.20;96954.44;4212965;28;5688;-70
2022/10/24 12:49:20;;;;;;;;;;;;;;;18.28;83.09;96941.56;4215732;28;5782;-70
2022/10/24 12:51:30;;;;;;;;;;;;;;;18.22;82.92;96945.97;4213907;28;5676;-70
2022/10/24 12:53:59;;;;;;;;;;;;;;;18.12;82.66;96945.81;4210966;28;5853;-70
2022/10/24 12:56:14;;;;;;;;;;;;;;;18.10;83.08;96952.41;4216576;28;5788;-70
2022/10/24 12:58:21;;;;;;;;;;;;;;;18.14;83.28;96953.59;4210990;28;5665;-70
2022/10/24 13:00:28;;;;;;;;;;;;;;;18.19;83.07;96964.38;4207375;28;5672;-70
2022/10/24 13:02:58;;;;;;;;;;;;;;;18.26;83.40;96975.78;4217099;28;5664;-70
2022/10/24 13:05:17;;;;;;;;;;;;;;;18.31;82.91;96978.53;4217811;28;5672;-70
2022/10/24 13:07:29;;;;;;;;;;;;;;;18.32;82.66;96972.13;4216812;28;6464;-70
2022/10/24 13:09:44;;;;;;;;;;;;;;;18.31;83.11;96986.56;4217652;28;5803;-70
2022/10/24 13:12:01;;;;;;;;;;;;;;;18.34;82.89;97010.16;4217751;28;5888;-70
2022/10/24 13:14:22;;;;;;;;;;;;;;;18.38;82.99;96995.28;4213183;28;7831;-70
2022/10/24 13:16:35;;;;;;;;;;;;;;;18.31;83.05;96989.25;4207274;28;5907;-70
2022/10/24 13:18:50;;;;;;;;;;;;;;;18.27;83.01;96985.44;4215556;28;5692;-70
2022/10/24 13:21:12;;;;;;;;;;;;;;;18.23;82.74;96941.44;4204896;28;5769;-70
2022/10/24 13:23:23;;;;;;;;;;;;;;;18.18;82.77;96949.38;4211316;28;5705;-70
2022/10/24 13:25:36;;;;;;;;;;;;;;;18.15;83.30;96971.25;4210763;28;5693;-70
2022/10/24 13:27:39;;;;;;;;;;;;;;;18.16;83.17;96989.75;4207215;28;5860;-70
2022/10/24 13:30:03;;;;;;;;;;;;;;;18.14;83.19;96961.63;4200060;28;5792;-70
2022/10/24 13:32:32;;;;;;;;;;;;;;;18.12;83.42;97007.34;4206098;28;5681;-70
2022/10/24 13:34:39;;;;;;;;;;;;;;;18.16;83.41;97027.22;4212889;28;5672;-70
2022/10/24 13:36:43;;;;;;;;;;;;;;;18.19;83.31;97032.09;4209580;28;5107;-70
2022/10/24 13:38:52;;;;;;;;;;;;;;;18.25;83.32;97014.28;4214924;28;5660;-70
2022/10/24 13:40:57;;;;;;;;;;;;;;;18.28;83.24;96992.41;4210286;28;5762;-70
2022/10/24 13:43:03;;;;;;;;;;;;;;;18.28;83.29;97005.78;4215670;28;5824;-70
2022/10/24 13:45:23;;;;;;;;;;;;;;;18.31;83.19;96997.28;4215273;28;5097;-70
2022/10/24 13:47:30;;;;;;;;;;;;;;;18.34;83.59;96983.41;4215536;28;5865;-70
2022/10/24 13:49:37;;;;;;;;;;;;;;;18.34;83.02;96983.41;4210663;28;5752;-70
2022/10/24 13:51:45;;;;;;;;;;;;;;;18.30;82.99;97009.03;4210356;28;5701;-70
2022/10/24 13:53:53;;;;;;;;;;;;;;;18.31;83.33;97013.31;4212614;28;5676;-70
2022/10/24 13:56:02;;;;;;;;;;;;;;;18.32;83.46;97007.72;4211631;28;5779;-70
2022/10/24 13:58:10;;;;;;;;;;;;;;;18.34;83.32;96988.75;4210267;28;5785;-70
2022/10/24 14:00:19;;;;;;;;;;;;;;;18.38;83.27;96981.09;4213258;28;5680;-70
2022/10/24 14:02:26;;;;;;;;;;;;;;;18.39;82.66;96972.00;4204570;28;6418;-70
2022/10/24 14:04:35;;;;;;;;;;;;;;;18.28;83.15;96966.44;4211336;28;5648;-70
2022/10/24 14:06:38;;;;;;;;;;;;;;;18.30;83.33;96956.31;4208835;28;5827;-70
2022/10/24 14:08:45;;;;;;;;;;;;;;;18.35;83.39;96969.00;4197372;28;5690;-70
2022/10/24 14:11:08;;;;;;;;;;;;;;;18.39;83.41;96967.47;4195621;28;5757;-70
2022/10/24 14:13:15;;;;;;;;;;;;;;;18.42;83.16;96945.56;4197918;28;5709;-70
2022/10/24 14:15:21;;;;;;;;;;;;;;;18.41;83.22;96954.66;4197842;28;5789;-70
2022/10/24 14:17:28;;;;;;;;;;;;;;;18.41;82.82;96976.06;4199037;28;5086;-70
2022/10/24 14:19:32;;;;;;;;;;;;;;;18.42;82.91;96998.28;4195670;28;5698;-70
2022/10/24 14:21:41;;;;;;;;;;;;;;;18.39;83.24;97010.28;4200341;28;5706;-70
2022/10/24 14:23:53;;;;;;;;;;;;;;;18.38;83.39;97023.91;4197438;28;5114;-70
2022/10/24 14:26:00;;;;;;;;;;;;;;;18.40;83.26;97027.97;4191973;28;5702;-70
2022/10/24 14:28:15;;;;;;;;;;;;;;;18.38;83.00;97024.72;4198120;28;5709;-70
2022/10/24 14:30:20;;;;;;;;;;;;;;;18.34;82.93;97013.66;4195445;28;5776;-70
2022/10/24 14:32:24;;;;;;;;;;;;;;;18.32;83.08;97018.44;4200877;28;5079;-70
2022/10/24 14:34:29;;;;;;;;;;;;;;;18.30;83.31;97011.69;4202226;28;5698;-70
2022/10/24 14:36:39;;;;;;;;;;;;;;;18.32;83.13;96993.53;4201805;28;5787;-70
2022/10/24 14:38:42;;;;;;;;;;;;;;;18.32;83.22;96975.63;4202065;28;5773;-70
2022/10/24 14:40:47;;;;;;;;;;;;;;;18.32;83.19;96961.44;4201613;28;5701;-70
2022/10/24 14:43:04;;;;;;;;;;;;;;;18.31;83.25;96955.25;4195087;28;5707;-70
2022/10/24 14:45:22;;;;;;;;;;;;;;;18.27;82.68;96942.59;4201537;28;5710;-70
2022/10/24 14:47:29;;;;;;;;;;;;;;;18.17;82.37;96939.72;4202223;28;5796;-70
2022/10/24 14:49:35;;;;;;;;;;;;;;;18.15;83.23;96949.88;4201024;28;5773;-71
2022/10/24 14:51:40;;;;;;;;;;;;;;;18.09;83.10;96954.28;4201915;28;5690;-71
2022/10/24 14:53:44;;;;;;;;;;;;;;;18.06;83.27;96953.94;4200531;28;5845;-70
2022/10/24 14:55:50;;;;;;;;;;;;;;;18.12;83.52;96966.38;4201450;28;5702;-71
2022/10/24 14:57:54;;;;;;;;;;;;;;;18.13;83.28;96960.00;4193284;28;5908;-71
2022/10/24 15:00:05;;;;;;;;;;;;;;;18.10;83.52;96952.41;4199684;28;5780;-70
2022/10/24 15:02:20;;;;;;;;;;;;;;;18.12;83.30;96950.31;4196011;28;5698;-71
2022/10/24 15:04:31;;;;;;;;;;;;;;;18.17;83.57;96971.84;4201475;28;5094;-70
2022/10/24 15:06:38;;;;;;;;;;;;;;;18.20;83.41;96966.81;4196135;28;5682;-70
2022/10/24 15:08:44;;;;;;;;;;;;;;;18.20;83.29;96958.78;4212076;28;5860;-70
2022/10/24 15:10:47;;;;;;;;;;;;;;;18.19;83.29;96962.53;4212447;28;5764;-71
2022/10/24 15:12:54;;;;;;;;;;;;;;;18.17;83.61;96961.94;4218155;28;5763;-70
2022/10/24 15:15:18;;;;;;;;;;;;;;;18.12;82.76;96971.72;4215788;28;5677;-70
2022/10/24 15:17:28;;;;;;;;;;;;;;;18.07;82.99;96975.13;4217722;28;5893;-70
2022/10/24 15:19:38;;;;;;;;;;;;;;;18.12;83.30;96972.56;4211551;28;6390;-70
2022/10/24 15:21:46;;;;;;;;;;;;;;;18.18;83.45;96976.13;4210563;28;5673;-70
2022/10/24 15:23:53;;;;;;;;;;;;;;;18.18;83.02;96970.78;4212615;28;5798;-70
2022/10/24 15:26:03;;;;;;;;;;;;;;;18.23;83.09;96974.38;4211111;28;5795;-71
2022/10/24 15:28:06;;;;;;;;;;;;;;;18.27;82.83;96972.03;4214128;28;6518;-71
2022/10/24 15:30:14;;;;;;;;;;;;;;;18.24;82.87;96975.19;4210128;28;6323;-70
2022/10/24 15:32:17;;;;;;;;;;;;;;;18.17;82.42;96985.22;4214463;28;5990;-70
2022/10/24 15:34:22;;;;;;;;;;;;;;;18.11;82.57;96981.59;4209830;28;5694;-71
2022/10/24 15:36:28;;;;;;;;;;;;;;;18.12;82.95;96993.97;4210098;28;5143;-70
2022/10/24 15:38:33;;;;;;;;;;;;;;;18.15;82.93;96988.13;4213526;28;5704;-70
2022/10/24 15:40:45;;;;;;;;;;;;;;;18.20;82.57;96995.44;4214766;28;5742;-70
2022/10/24 15:42:48;;;;;;;;;;;;;;;18.20;82.65;96987.41;4217634;28;5676;-71
2022/10/24 15:44:51;;;;;;;;;;;;;;;18.21;82.03;96989.03;4207873;28;5668;-70
2022/10/24 15:46:56;;;;;;;;;;;;;;;18.19;82.40;96983.91;4211204;28;5877;-70
2022/10/24 15:48:58;;;;;;;;;;;;;;;18.23;82.35;96981.56;4212821;28;5705;-70
2022/10/24 15:51:01;;;;;;;;;;;;;;;18.20;81.81;96974.03;4214172;28;5888;-70
2022/10/24 15:53:05;;;;;;;;;;;;;;;18.17;81.63;96983.34;4211668;28;5750;-70
2022/10/24 15:55:17;;;;;;;;;;;;;;;18.13;81.75;96990.22;4206258;28;5904;-70
2022/10/24 15:57:20;;;;;;;;;;;;;;;18.17;81.99;96990.56;4214246;28;5675;-71
2022/10/24 15:59:25;;;;;;;;;;;;;;;18.21;82.20;96987.16;4215914;28;5677;-71
2022/10/24 16:01:32;;;;;;;;;;;;;;;18.24;81.57;97001.97;4207715;28;5735;-71
2022/10/24 16:03:41;;;;;;;;;;;;;;;18.26;81.73;97005.22;4212386;28;5656;-71
2022/10/24 16:05:50;;;;;;;;;;;;;;;18.31;81.95;97013.31;4211729;28;5700;-70
2022/10/24 16:07:53;;;;;;;;;;;;;;;18.33;81.76;96995.16;4211952;28;5906;-69
2022/10/24 16:09:56;;;;;;;;;;;;;;;18.34;81.58;96994.94;4207994;28;5852;-70
2022/10/24 16:11:59;;;;;;;;;;;;;;;18.39;81.76;97009.47;4208072;28;5682;-70
2022/10/24 16:14:03;;;;;;;;;;;;;;;18.42;81.60;97011.66;4207018;28;5758;-69
2022/10/24 16:16:07;;;;;;;;;;;;;;;18.42;81.31;97012.47;4209525;28;5961;-70
2022/10/24 16:18:10;;;;;;;;;;;;;;;18.41;81.41;97023.44;4209900;28;5907;-70
2022/10/24 16:20:15;;;;;;;;;;;;;;;18.34;80.92;97018.19;4208409;28;5803;-71
2022/10/24 16:22:18;;;;;;;;;;;;;;;18.33;81.03;97024.59;4207560;28;5928;-70
2022/10/24 16:24:21;;;;;;;;;;;;;;;18.38;81.37;97034.63;4206181;28;5824;-69
2022/10/24 16:26:24;;;;;;;;;;;;;;;18.41;81.30;97010.03;4207971;28;5834;-70
2022/10/24 16:28:27;;;;;;;;;;;;;;;18.43;81.23;96999.91;4208555;28;5878;-70
2022/10/24 16:30:32;;;;;;;;;;;;;;;18.46;81.21;97013.66;4211692;28;5901;-71
2022/10/24 16:32:35;;;;;;;;;;;;;;;18.49;80.93;97015.84;4212462;28;5795;-70
2022/10/24 16:34:38;;;;;;;;;;;;;;;18.52;80.89;97014.56;4215906;28;5680;-70
2022/10/24 16:36:42;;;;;;;;;;;;;;;18.52;80.65;97017.22;4214448;28;5528;-71
2022/10/24 16:38:46;;;;;;;;;;;;;;;18.54;80.80;97029.31;4216494;28;5782;-70
2022/10/24 16:40:49;;;;;;;;;;;;;;;18.53;80.46;97030.38;4209841;28;5693;-71
2022/10/24 16:42:54;;;;;;;;;;;;;;;18.54;80.48;97029.31;4216205;28;5747;-70
2022/10/24 16:44:57;;;;;;;;;;;;;;;18.52;80.47;97028.75;4216678;28;5900;-70
2022/10/24 16:47:00;;;;;;;;;;;;;;;18.53;80.46;97026.88;4215979;28;5668;-70
2022/10/24 16:49:02;;;;;;;;;;;;;;;18.52;80.73;97022.59;4217152;28;6803;-70
2022/10/24 16:51:12;;;;;;;;;;;;;;;18.51;80.43;97024.44;4209363;28;5901;-70
2022/10/24 16:53:17;;;;;;;;;;;;;;;18.51;80.20;97027.13;4216214;28;5857;-70
2022/10/24 16:55:21;;;;;;;;;;;;;;;18.50;80.28;97025.50;4216849;28;5895;-70
2022/10/24 16:57:24;;;;;;;;;;;;;;;18.50;80.36;97028.19;4212044;28;5685;-70
2022/10/24 16:59:27;;;;;;;;;;;;;;;18.49;80.17;97026.56;4212627;28;5701;-71
2022/10/24 17:01:30;;;;;;;;;;;;;;;18.47;80.19;97028.66;4214897;28;6017;-71
2022/10/24 17:03:33;;;;;;;;;;;;;;;18.46;79.86;97035.06;4215032;28;5834;-71
2022/10/24 17:05:36;;;;;;;;;;;;;;;18.46;79.94;97035.06;4215111;28;5869;-71
2022/10/24 17:07:40;;;;;;;;;;;;;;;18.47;80.06;97042.03;4216285;28;5097;-70
2022/10/24 17:09:44;;;;;;;;;;;;;;;18.46;79.56;97029.72;4215577;28;5770;-70
2022/10/24 17:11:47;;;;;;;;;;;;;;;18.46;79.91;97029.72;4216459;28;5740;-71
2022/10/24 17:13:49;;;;;;;;;;;;;;;18.46;79.36;97031.56;4215361;28;5768;-70
2022/10/24 17:15:52;;;;;;;;;;;;;;;18.42;79.08;97031.22;4216314;28;5779;-70
2022/10/24 17:17:55;;;;;;;;;;;;;;;18.39;79.49;97030.88;4215854;28;5759;-71
2022/10/24 17:19:58;;;;;;;;;;;;;;;18.41;79.00;97037.63;4212245;28;5672;-71
2022/10/24 17:22:01;;;;;;;;;;;;;;;18.43;79.10;97027.50;4215372;28;5768;-70
2022/10/24 17:24:05;;;;;;;;;;;;;;;18.42;79.23;97031.22;4211989;28;5747;-71